createdAt,value
2018-10-07T00:01:56.492Z,3.80
2018-10-07T00:04:02.580Z,3.73
2018-10-07T00:06:08.740Z,4.00
2018-10-07T00:08:14.868Z,3.77
2018-10-07T00:10:21.528Z,3.43
2018-10-07T00:12:27.703Z,3.57
2018-10-07T00:14:33.796Z,3.90
2018-10-07T00:16:39.897Z,4.10
2018-10-07T00:18:46.033Z,4.00
2018-10-07T00:20:52.146Z,3.77
2018-10-07T00:22:58.258Z,4.20
2018-10-07T00:25:04.393Z,4.20
2018-10-07T00:27:10.584Z,3.57
2018-10-07T00:29:16.851Z,3.83
2018-10-07T00:31:22.983Z,4.27
2018-10-07T00:33:29.150Z,3.80
2018-10-07T00:35:35.264Z,3.60
2018-10-07T00:37:41.379Z,4.40
2018-10-07T00:39:47.520Z,3.77
2018-10-07T00:41:53.668Z,3.67
2018-10-07T00:43:59.736Z,3.50
2018-10-07T00:46:05.869Z,4.23
2018-10-07T00:48:12.053Z,4.10
2018-10-07T00:50:18.156Z,3.60
2018-10-07T00:52:24.304Z,4.30
2018-10-07T00:54:30.406Z,4.67
2018-10-07T00:56:36.497Z,4.70
2018-10-07T00:58:42.605Z,4.80
2018-10-07T01:00:48.714Z,4.90
2018-10-07T01:02:55.046Z,5.10
2018-10-07T01:05:01.132Z,5.27
2018-10-07T01:07:07.224Z,5.47
2018-10-07T01:09:13.827Z,4.60
2018-10-07T01:11:19.920Z,5.00
2018-10-07T01:13:26.911Z,4.60
2018-10-07T01:15:33.024Z,5.23
2018-10-07T01:17:39.114Z,5.10
2018-10-07T01:19:45.212Z,4.93
2018-10-07T01:21:51.332Z,5.33
2018-10-07T01:23:57.497Z,4.90
2018-10-07T01:26:03.842Z,4.53
2018-10-07T01:28:09.920Z,5.20
2018-10-07T01:30:17.571Z,6.10
2018-10-07T01:32:23.705Z,5.10
2018-10-07T01:34:29.816Z,4.80
2018-10-07T01:36:35.878Z,4.67
2018-10-07T01:38:41.952Z,5.20
2018-10-07T01:40:48.095Z,4.77
2018-10-07T01:42:55.091Z,5.17
2018-10-07T01:45:01.201Z,5.10
2018-10-07T01:47:07.419Z,4.90
2018-10-07T01:49:13.471Z,5.00
2018-10-07T01:51:19.683Z,4.97
2018-10-07T01:53:26.055Z,5.10
2018-10-07T01:55:32.176Z,5.73
2018-10-07T01:57:38.299Z,5.43
2018-10-07T01:59:44.382Z,4.60
2018-10-07T02:01:50.526Z,4.57
2018-10-07T02:03:56.664Z,4.60
2018-10-07T02:06:02.780Z,4.40
2018-10-07T02:08:08.926Z,4.03
2018-10-07T02:10:15.082Z,4.20
2018-10-07T02:12:21.176Z,4.63
2018-10-07T02:14:27.245Z,4.27
2018-10-07T02:16:33.997Z,3.93
2018-10-07T02:18:40.060Z,3.67
2018-10-07T02:20:46.236Z,4.00
2018-10-07T02:22:52.308Z,3.90
2018-10-07T02:24:58.449Z,4.40
2018-10-07T02:27:04.545Z,3.97
2018-10-07T02:29:10.661Z,4.20
2018-10-07T02:31:16.720Z,4.37
2018-10-07T02:33:22.820Z,4.70
2018-10-07T02:35:29.291Z,4.77
2018-10-07T02:37:35.404Z,4.90
2018-10-07T02:39:41.483Z,4.60
2018-10-07T02:41:47.551Z,4.47
2018-10-07T02:43:53.646Z,5.13
2018-10-07T02:45:59.742Z,4.40
2018-10-07T02:48:06.067Z,4.53
2018-10-07T02:50:20.021Z,3.53
2018-10-07T02:52:31.149Z,4.20
2018-10-07T02:54:37.341Z,5.17
2018-10-07T02:56:43.765Z,4.70
2018-10-07T02:58:50.013Z,4.87
2018-10-07T03:00:56.132Z,4.90
2018-10-07T03:03:02.328Z,4.57
2018-10-07T03:05:08.508Z,3.80
2018-10-07T03:07:15.276Z,4.50
2018-10-07T03:09:21.520Z,4.10
2018-10-07T03:11:27.584Z,4.90
2018-10-07T03:13:33.675Z,4.37
2018-10-07T03:15:39.777Z,4.63
2018-10-07T03:17:45.936Z,4.53
2018-10-07T03:19:52.280Z,4.10
2018-10-07T03:21:58.499Z,4.57
2018-10-07T03:24:04.781Z,4.33
2018-10-07T03:26:12.350Z,4.50
2018-10-07T03:28:18.537Z,4.27
2018-10-07T03:30:25.180Z,4.33
2018-10-07T03:32:31.261Z,4.20
2018-10-07T03:34:37.433Z,3.90
2018-10-07T03:36:43.566Z,4.07
2018-10-07T03:38:49.651Z,4.30
2018-10-07T03:40:55.813Z,3.83
2018-10-07T03:43:02.448Z,3.63
2018-10-07T03:45:08.708Z,3.63
2018-10-07T03:47:14.824Z,3.70
2018-10-07T03:49:20.909Z,4.73
2018-10-07T03:51:27.031Z,3.97
2018-10-07T03:53:33.148Z,4.27
2018-10-07T03:55:39.263Z,4.00
2018-10-07T03:57:45.380Z,4.60
2018-10-07T03:59:52.027Z,4.07
2018-10-07T04:01:58.373Z,3.50
2018-10-07T04:04:04.509Z,3.70
2018-10-07T04:06:10.615Z,4.57
2018-10-07T04:08:16.741Z,3.90
2018-10-07T04:10:22.809Z,3.60
2018-10-07T04:12:28.890Z,3.70
2018-10-07T04:14:35.017Z,3.60
2018-10-07T04:16:41.132Z,4.10
2018-10-07T04:18:47.231Z,4.13
2018-10-07T04:20:53.406Z,4.20
2018-10-07T04:22:59.548Z,3.80
2018-10-07T04:25:05.696Z,4.27
2018-10-07T04:27:11.800Z,4.07
2018-10-07T04:29:17.887Z,4.63
2018-10-07T04:31:24.296Z,3.20
2018-10-07T04:33:30.412Z,3.50
2018-10-07T04:35:36.539Z,3.70
2018-10-07T04:37:42.598Z,4.40
2018-10-07T04:39:48.697Z,3.67
2018-10-07T04:41:54.811Z,3.70
2018-10-07T04:44:00.947Z,4.37
2018-10-07T04:46:07.090Z,3.90
2018-10-07T04:48:13.175Z,3.60
2018-10-07T04:50:19.219Z,3.50
2018-10-07T04:52:25.333Z,4.20
2018-10-07T04:54:31.453Z,4.00
2018-10-07T04:56:37.555Z,4.50
2018-10-07T04:58:43.658Z,3.40
2018-10-07T05:00:49.729Z,4.23
2018-10-07T05:02:55.870Z,3.90
2018-10-07T05:05:01.996Z,4.00
2018-10-07T05:07:08.223Z,4.13
2018-10-07T05:09:14.345Z,4.60
2018-10-07T05:11:20.524Z,4.43
2018-10-07T05:13:28.313Z,3.53
2018-10-07T05:15:34.441Z,4.00
2018-10-07T05:17:40.590Z,4.50
2018-10-07T05:19:46.729Z,4.37
2018-10-07T05:21:52.931Z,3.97
2018-10-07T05:23:59.624Z,4.50
2018-10-07T05:26:05.812Z,3.90
2018-10-07T05:28:11.911Z,4.73
2018-10-07T05:30:18.019Z,4.70
2018-10-07T05:32:24.128Z,4.30
2018-10-07T05:34:30.249Z,4.00
2018-10-07T05:36:36.424Z,4.90
2018-10-07T05:38:42.615Z,3.90
2018-10-07T05:40:48.693Z,4.60
2018-10-07T05:42:55.456Z,4.43
2018-10-07T05:45:01.595Z,4.13
2018-10-07T05:47:07.776Z,3.97
2018-10-07T05:49:13.885Z,4.00
2018-10-07T05:51:20.049Z,4.30
2018-10-07T05:53:26.117Z,5.13
2018-10-07T05:55:32.707Z,4.10
2018-10-07T05:57:38.780Z,4.50
2018-10-07T05:59:44.913Z,4.67
2018-10-07T06:01:51.731Z,4.97
2018-10-07T06:04:43.310Z,4.83
2018-10-07T06:06:49.580Z,4.63
2018-10-07T06:08:56.714Z,4.40
2018-10-07T06:11:02.866Z,4.93
2018-10-07T06:13:09.027Z,4.70
2018-10-07T06:15:30.870Z,4.53
2018-10-07T06:17:37.071Z,5.20
2018-10-07T06:19:43.266Z,5.23
2018-10-07T06:21:49.426Z,4.40
2018-10-07T06:23:55.597Z,4.53
2018-10-07T06:26:01.692Z,4.60
2018-10-07T06:28:07.859Z,4.00
2018-10-07T06:30:14.006Z,4.83
2018-10-07T06:32:22.079Z,5.47
2018-10-07T06:34:28.949Z,4.63
2018-10-07T06:36:35.064Z,4.60
2018-10-07T06:38:41.252Z,5.13
2018-10-07T06:40:47.340Z,5.13
2018-10-07T06:42:53.561Z,4.80
2018-10-07T06:44:59.699Z,4.80
2018-10-07T06:47:05.842Z,5.07
2018-10-07T06:49:11.961Z,4.60
2018-10-07T06:51:18.176Z,4.80
2018-10-07T06:53:24.334Z,5.27
2018-10-07T06:55:30.511Z,4.77
2018-10-07T06:57:36.696Z,5.07
2018-10-07T06:59:42.846Z,4.83
2018-10-07T07:01:49.003Z,4.93
2018-10-07T07:03:55.539Z,5.00
2018-10-07T07:06:01.662Z,7.20
2018-10-07T07:08:08.468Z,5.53
2018-10-07T07:10:14.625Z,5.53
2018-10-07T07:12:20.755Z,5.53
2018-10-07T07:14:26.881Z,5.97
2018-10-07T07:16:33.093Z,5.30
2018-10-07T07:18:39.760Z,5.30
2018-10-07T07:20:45.986Z,6.30
2018-10-07T07:22:52.128Z,5.60
2018-10-07T07:24:58.201Z,6.00
2018-10-07T07:27:04.328Z,5.70
2018-10-07T07:29:10.559Z,5.50
2018-10-07T07:31:16.826Z,5.43
2018-10-07T07:33:23.130Z,5.87
2018-10-07T07:35:29.436Z,6.30
2018-10-07T07:37:35.580Z,6.70
2018-10-07T07:39:41.818Z,5.50
2018-10-07T07:41:48.020Z,6.17
2018-10-07T07:43:54.133Z,6.53
2018-10-07T07:46:00.339Z,5.80
2018-10-07T07:48:07.137Z,6.30
2018-10-07T07:50:13.289Z,6.00
2018-10-07T07:52:19.520Z,5.60
2018-10-07T07:54:25.669Z,5.57
2018-10-07T07:56:31.836Z,6.93
2018-10-07T07:58:38.025Z,6.67
2018-10-07T08:00:44.205Z,5.93
2018-10-07T08:02:50.368Z,6.47
2018-10-07T08:04:57.152Z,6.10
2018-10-07T08:07:03.334Z,6.50
2018-10-07T08:09:10.665Z,5.30
2018-10-07T08:11:16.876Z,6.97
2018-10-07T08:13:23.129Z,7.03
2018-10-07T08:15:29.336Z,6.40
2018-10-07T08:17:35.615Z,6.43
2018-10-07T08:19:41.735Z,6.83
2018-10-07T08:21:47.940Z,6.90
2018-10-07T08:23:54.135Z,5.70
2018-10-07T08:26:00.367Z,5.67
2018-10-07T08:28:06.791Z,6.90
2018-10-07T08:30:13.376Z,5.70
2018-10-07T08:32:23.391Z,5.80
2018-10-07T08:34:29.869Z,5.53
2018-10-07T08:36:36.039Z,5.70
2018-10-07T08:38:42.184Z,6.17
2018-10-07T08:40:48.378Z,6.43
2018-10-07T08:42:54.620Z,6.40
2018-10-07T08:45:00.807Z,6.00
2018-10-07T08:47:07.056Z,5.80
2018-10-07T08:49:13.221Z,6.40
2018-10-07T08:51:20.767Z,6.83
2018-10-07T08:53:26.985Z,5.73
2018-10-07T08:55:33.323Z,5.57
2018-10-07T08:57:39.496Z,6.33
2018-10-07T08:59:46.242Z,5.83
2018-10-07T09:01:52.391Z,6.80
2018-10-07T09:03:58.635Z,5.73
2018-10-07T09:06:05.058Z,5.63
2018-10-07T09:08:11.425Z,5.43
2018-10-07T09:10:17.590Z,6.80
2018-10-07T09:12:23.841Z,6.90
2018-10-07T09:14:30.015Z,7.20
2018-10-07T09:16:36.557Z,6.90
2018-10-07T09:18:42.836Z,6.90
2018-10-07T09:20:49.035Z,6.20
2018-10-07T09:22:55.153Z,7.13
2018-10-07T09:25:01.309Z,5.63
2018-10-07T09:27:07.596Z,6.40
2018-10-07T09:29:13.783Z,6.93
2018-10-07T09:31:20.144Z,6.27
2018-10-07T09:33:26.260Z,7.80
2018-10-07T09:35:32.427Z,6.87
2018-10-07T09:37:38.547Z,7.07
2018-10-07T09:39:45.015Z,7.37
2018-10-07T09:41:51.240Z,6.60
2018-10-07T09:43:57.448Z,8.47
2018-10-07T09:46:03.675Z,6.90
2018-10-07T09:48:10.176Z,6.70
2018-10-07T09:50:16.324Z,8.70
2018-10-07T09:52:22.568Z,7.30
2018-10-07T09:54:28.695Z,6.90
2018-10-07T09:56:34.880Z,7.20
2018-10-07T09:58:41.180Z,7.70
2018-10-07T10:00:47.346Z,9.10
2018-10-07T10:02:53.551Z,7.27
2018-10-07T10:04:59.793Z,7.50
2018-10-07T10:07:05.959Z,7.30
2018-10-07T10:09:12.353Z,7.00
2018-10-07T10:11:18.599Z,6.83
2018-10-07T10:13:24.601Z,7.10
2018-10-07T10:15:30.775Z,8.07
2018-10-07T10:17:37.021Z,7.50
2018-10-07T10:20:08.221Z,7.90
2018-10-07T10:22:29.845Z,6.87
2018-10-07T10:25:32.815Z,7.97
2018-10-07T10:29:58.520Z,6.83
2018-10-07T10:32:46.159Z,6.53
2018-10-07T10:37:04.365Z,7.50
2018-10-07T10:39:21.159Z,6.17
2018-10-07T10:41:49.137Z,6.43
2018-10-07T10:44:03.674Z,6.37
2018-10-07T10:46:27.281Z,7.03
2018-10-07T10:49:48.266Z,7.10
2018-10-07T10:52:09.499Z,7.17
2018-10-07T10:54:23.417Z,7.43
2018-10-07T10:56:38.563Z,7.87
2018-10-07T11:00:03.348Z,8.30
2018-10-07T11:02:20.137Z,8.27
2018-10-07T11:04:33.911Z,8.27
2018-10-07T11:09:00.831Z,7.90
2018-10-07T11:12:19.218Z,7.70
2018-10-07T11:14:38.488Z,6.40
2018-10-07T11:19:00.446Z,8.47
2018-10-07T11:21:22.105Z,6.40
2018-10-07T11:24:10.634Z,5.73
2018-10-07T11:26:24.418Z,5.30
2018-10-07T11:29:46.277Z,5.43
2018-10-07T11:32:11.632Z,5.50
2018-10-07T11:35:35.281Z,5.87
2018-10-07T11:38:01.385Z,6.50
2018-10-07T11:40:20.201Z,6.90
2018-10-07T11:42:32.145Z,5.77
2018-10-07T11:45:52.803Z,6.23
2018-10-07T11:48:48.292Z,5.30
2018-10-07T11:51:06.401Z,6.07
2018-10-07T11:53:28.220Z,7.40
2018-10-07T11:55:34.443Z,7.40
2018-10-07T11:57:40.624Z,6.40
2018-10-07T11:59:46.730Z,7.47
2018-10-07T12:01:52.861Z,7.43
2018-10-07T12:03:59.029Z,7.27
2018-10-07T12:06:05.116Z,8.90
2018-10-07T12:08:11.379Z,8.23
2018-10-07T12:10:17.683Z,8.40
2018-10-07T12:12:23.865Z,9.77
2018-10-07T12:14:29.978Z,10.17
2018-10-07T12:16:36.201Z,8.47
2018-10-07T12:18:42.357Z,8.67
2018-10-07T12:20:48.538Z,9.00
2018-10-07T12:22:54.700Z,8.63
2018-10-07T12:25:00.888Z,7.97
2018-10-07T12:27:07.866Z,8.07
2018-10-07T12:29:14.040Z,8.93
2018-10-07T12:31:20.180Z,8.10
2018-10-07T12:33:27.057Z,9.73
2018-10-07T12:35:33.247Z,9.57
2018-10-07T12:37:39.486Z,7.30
2018-10-07T12:39:45.614Z,7.40
2018-10-07T12:41:51.805Z,7.30
2018-10-07T12:43:57.998Z,7.57
2018-10-07T12:46:04.225Z,8.87
2018-10-07T12:48:10.464Z,6.90
2018-10-07T12:50:16.697Z,8.03
2018-10-07T12:52:22.867Z,7.73
2018-10-07T12:54:30.028Z,6.80
2018-10-07T12:56:36.072Z,6.90
2018-10-07T12:58:42.276Z,6.53
2018-10-07T13:00:48.378Z,6.40
2018-10-07T13:02:54.554Z,6.07
2018-10-07T13:05:00.782Z,5.90
2018-10-07T13:07:07.272Z,6.17
2018-10-07T13:09:14.449Z,5.83
2018-10-07T13:11:21.336Z,5.80
2018-10-07T13:13:27.533Z,5.27
2018-10-07T13:15:33.709Z,5.80
2018-10-07T13:17:39.925Z,5.17
2018-10-07T13:19:46.141Z,5.57
2018-10-07T13:21:52.327Z,6.20
2018-10-07T13:23:58.477Z,4.90
2018-10-07T13:26:04.738Z,5.57
2018-10-07T13:28:10.879Z,6.10
2018-10-07T13:30:17.056Z,5.00
2018-10-07T13:32:23.238Z,5.50
2018-10-07T13:34:29.473Z,6.33
2018-10-07T13:36:35.689Z,5.40
2018-10-07T13:38:41.974Z,6.60
2018-10-07T13:40:48.100Z,6.60
2018-10-07T13:42:54.245Z,7.10
2018-10-07T13:45:00.466Z,6.23
2018-10-07T13:47:06.615Z,6.20
2018-10-07T13:49:13.338Z,5.80
2018-10-07T13:51:19.630Z,6.30
2018-10-07T13:53:26.121Z,7.30
2018-10-07T13:55:32.434Z,5.77
2018-10-07T13:57:38.654Z,6.33
2018-10-07T13:59:46.565Z,6.50
2018-10-07T14:01:52.785Z,5.90
2018-10-07T14:03:59.067Z,6.20
2018-10-07T14:06:05.224Z,5.93
2018-10-07T14:08:11.531Z,5.80
2018-10-07T14:10:17.889Z,6.00
2018-10-07T14:12:24.095Z,6.37
2018-10-07T14:14:30.370Z,6.43
2018-10-07T14:16:36.618Z,5.90
2018-10-07T14:18:42.805Z,5.50
2018-10-07T14:20:49.024Z,5.77
2018-10-07T14:22:55.206Z,7.20
2018-10-07T14:25:01.390Z,5.60
2018-10-07T14:27:07.683Z,7.13
2018-10-07T14:29:13.904Z,5.90
2018-10-07T14:31:21.177Z,5.90
2018-10-07T14:33:27.365Z,5.97
2018-10-07T14:35:34.408Z,6.43
2018-10-07T14:37:41.579Z,6.57
2018-10-07T14:39:47.887Z,5.97
2018-10-07T14:41:54.299Z,6.70
2018-10-07T14:44:00.655Z,5.93
2018-10-07T14:46:07.577Z,5.57
2018-10-07T14:48:13.804Z,5.57
2018-10-07T14:50:19.992Z,6.13
2018-10-07T14:52:26.252Z,6.03
2018-10-07T14:54:33.159Z,6.40
2018-10-07T14:56:39.777Z,6.23
2018-10-07T14:58:46.022Z,7.00
2018-10-07T15:00:52.300Z,6.67
2018-10-07T15:02:58.612Z,7.10
2018-10-07T15:05:04.924Z,7.53
2018-10-07T15:07:11.125Z,8.80
2018-10-07T15:09:17.298Z,8.50
2018-10-07T15:11:23.430Z,9.17
2018-10-07T15:13:29.683Z,9.20
2018-10-07T15:15:35.943Z,9.70
2018-10-07T15:17:42.156Z,11.00
2018-10-07T15:19:48.425Z,11.00
2018-10-07T15:21:54.621Z,12.23
2018-10-07T15:24:00.845Z,12.03
2018-10-07T15:26:07.120Z,12.30
2018-10-07T15:28:13.341Z,11.37
2018-10-07T15:30:19.538Z,10.93
2018-10-07T15:32:25.729Z,10.77
2018-10-07T15:34:31.926Z,11.90
2018-10-07T15:36:38.038Z,12.37
2018-10-07T15:38:44.443Z,10.20
2018-10-07T15:40:50.611Z,11.57
2018-10-07T15:42:56.761Z,11.20
2018-10-07T15:45:03.056Z,10.43
2018-10-07T15:47:09.335Z,11.30
2018-10-07T15:49:15.715Z,12.03
2018-10-07T15:51:21.903Z,11.87
2018-10-07T15:53:28.047Z,10.70
2018-10-07T15:55:34.392Z,11.27
2018-10-07T15:57:40.539Z,9.47
2018-10-07T15:59:46.760Z,10.00
2018-10-07T16:01:54.495Z,10.60
2018-10-07T16:04:00.644Z,10.23
2018-10-07T16:06:06.962Z,9.73
2018-10-07T16:08:13.161Z,9.80
2018-10-07T16:10:19.460Z,10.27
2018-10-07T16:12:25.715Z,10.40
2018-10-07T16:14:31.889Z,10.23
2018-10-07T16:16:38.270Z,9.30
2018-10-07T16:18:44.559Z,10.60
2018-10-07T16:20:50.794Z,9.13
2018-10-07T16:22:57.181Z,8.53
2018-10-07T16:25:03.397Z,9.07
2018-10-07T16:27:10.658Z,8.90
2018-10-07T16:29:16.965Z,7.83
2018-10-07T16:31:23.180Z,8.63
2018-10-07T16:33:29.364Z,7.70
2018-10-07T16:35:36.586Z,8.27
2018-10-07T16:37:42.804Z,7.73
2018-10-07T16:39:49.026Z,7.90
2018-10-07T16:41:55.232Z,6.80
2018-10-07T16:44:01.543Z,7.27
2018-10-07T16:46:08.105Z,7.67
2018-10-07T16:48:14.418Z,7.57
2018-10-07T16:50:20.729Z,7.47
2018-10-07T16:52:26.979Z,7.33
2018-10-07T16:54:33.197Z,7.00
2018-10-07T16:56:39.500Z,6.97
2018-10-07T16:58:45.630Z,7.60
2018-10-07T17:00:51.847Z,6.43
2018-10-07T17:02:58.087Z,6.70
2018-10-07T17:05:04.375Z,6.40
2018-10-07T17:07:10.573Z,7.10
2018-10-07T17:09:17.834Z,7.13
2018-10-07T17:11:24.013Z,6.57
2018-10-07T17:13:30.298Z,6.47
2018-10-07T17:15:36.433Z,7.40
2018-10-07T17:17:42.776Z,7.20
2018-10-07T17:19:49.164Z,6.67
2018-10-07T17:21:55.565Z,7.63
2018-10-07T17:24:01.852Z,6.97
2018-10-07T17:26:08.230Z,6.30
2018-10-07T17:28:14.504Z,6.50
2018-10-07T17:30:20.855Z,6.80
2018-10-07T17:32:27.088Z,7.20
2018-10-07T17:34:33.421Z,7.67
2018-10-07T17:36:39.672Z,7.40
2018-10-07T17:38:45.839Z,7.10
2018-10-07T17:40:52.158Z,7.57
2018-10-07T17:42:58.381Z,6.50
2018-10-07T17:45:04.671Z,6.33
2018-10-07T17:47:10.955Z,7.27
2018-10-07T17:49:17.153Z,8.00
2018-10-07T17:51:23.567Z,8.97
2018-10-07T17:53:29.849Z,8.23
2018-10-07T17:55:36.141Z,8.03
2018-10-07T17:57:42.417Z,8.53
2018-10-07T17:59:48.635Z,7.57
2018-10-07T18:01:54.823Z,8.10
2018-10-07T18:04:01.114Z,7.97
2018-10-07T18:06:08.295Z,9.03
2018-10-07T18:08:14.564Z,9.03
2018-10-07T18:10:20.852Z,8.70
2018-10-07T18:12:27.039Z,8.77
2018-10-07T18:14:33.282Z,7.90
2018-10-07T18:16:39.625Z,7.27
2018-10-07T18:18:45.911Z,8.20
2018-10-07T18:20:52.329Z,8.73
2018-10-07T18:22:58.567Z,8.67
2018-10-07T18:25:04.746Z,8.20
2018-10-07T18:27:11.132Z,8.27
2018-10-07T18:29:17.425Z,7.37
2018-10-07T18:31:23.693Z,7.50
2018-10-07T18:33:30.303Z,7.37
2018-10-07T18:35:36.512Z,7.43
2018-10-07T18:37:42.723Z,7.50
2018-10-07T18:39:48.923Z,6.10
2018-10-07T18:41:55.081Z,7.83
2018-10-07T18:44:01.301Z,5.73
2018-10-07T18:46:07.572Z,6.10
2018-10-07T18:48:13.800Z,6.10
2018-10-07T18:50:20.088Z,5.63
2018-10-07T18:52:26.345Z,5.50
2018-10-07T18:54:32.780Z,6.50
2018-10-07T18:56:38.978Z,5.50
2018-10-07T18:58:45.325Z,5.97
2018-10-07T19:00:51.678Z,5.10
2018-10-07T19:02:58.065Z,6.10
2018-10-07T19:05:04.335Z,5.90
2018-10-07T19:07:11.610Z,5.53
2018-10-07T19:09:18.005Z,5.80
2018-10-07T19:11:24.584Z,5.27
2018-10-07T19:13:30.815Z,5.67
2018-10-07T19:15:37.054Z,6.00
2018-10-07T19:17:43.363Z,4.77
2018-10-07T19:19:49.700Z,5.93
2018-10-07T19:21:56.786Z,5.10
2018-10-07T19:24:03.221Z,6.57
2018-10-07T19:26:10.275Z,5.27
2018-10-07T19:28:16.604Z,5.53
2018-10-07T19:30:22.948Z,5.30
2018-10-07T19:32:29.395Z,4.70
2018-10-07T19:34:35.691Z,5.40
2018-10-07T19:36:42.140Z,5.30
2018-10-07T19:38:48.375Z,5.40
2018-10-07T19:40:54.860Z,5.10
2018-10-07T19:43:01.279Z,6.03
2018-10-07T19:45:07.761Z,5.60
2018-10-07T19:47:14.108Z,5.57
2018-10-07T19:49:20.556Z,6.47
2018-10-07T19:51:26.826Z,7.07
2018-10-07T19:53:33.095Z,5.80
2018-10-07T19:55:39.350Z,5.00
2018-10-07T19:57:45.632Z,5.57
2018-10-07T19:59:52.010Z,5.83
2018-10-07T20:01:58.408Z,5.27
2018-10-07T20:04:05.060Z,5.40
2018-10-07T20:06:11.371Z,7.77
2018-10-07T20:08:17.895Z,5.43
2018-10-07T20:10:24.139Z,6.27
2018-10-07T20:12:30.978Z,4.50
2018-10-07T20:14:37.800Z,5.80
2018-10-07T20:16:44.421Z,5.00
2018-10-07T20:18:50.745Z,5.47
2018-10-07T20:20:57.068Z,6.20
2018-10-07T20:23:03.630Z,5.77
2018-10-07T20:25:10.076Z,5.40
2018-10-07T20:27:16.379Z,5.27
2018-10-07T20:29:22.890Z,5.13
2018-10-07T20:31:28.441Z,5.20
2018-10-07T20:33:34.988Z,5.37
2018-10-07T20:35:41.309Z,6.47
2018-10-07T20:37:47.744Z,7.10
2018-10-07T20:39:53.960Z,6.40
2018-10-07T20:42:00.268Z,6.63
2018-10-07T20:44:06.708Z,6.30
2018-10-07T20:46:13.000Z,6.40
2018-10-07T20:48:19.126Z,7.10
2018-10-07T20:50:25.590Z,6.50
2018-10-07T20:52:31.740Z,5.70
2018-10-07T20:54:38.059Z,5.70
2018-10-07T20:56:44.280Z,5.03
2018-10-07T20:58:50.477Z,4.30
2018-10-07T21:00:56.709Z,5.00
2018-10-07T21:03:03.020Z,5.80
2018-10-07T21:05:09.296Z,4.50
2018-10-07T21:07:15.552Z,5.20
2018-10-07T21:09:21.803Z,4.00
2018-10-07T21:11:28.024Z,4.00
2018-10-07T21:13:34.173Z,4.50
2018-10-07T21:15:40.438Z,5.00
2018-10-07T21:17:46.613Z,4.13
2018-10-07T21:19:52.781Z,4.60
2018-10-07T21:21:58.936Z,4.53
2018-10-07T21:24:05.140Z,3.90
2018-10-07T21:26:11.266Z,4.80
2018-10-07T21:28:17.458Z,4.37
2018-10-07T21:30:24.310Z,4.40
2018-10-07T21:32:30.551Z,4.83
2018-10-07T21:34:36.700Z,4.20
2018-10-07T21:36:42.855Z,5.30
2018-10-07T21:38:48.955Z,4.37
2018-10-07T21:40:55.146Z,5.27
2018-10-07T21:43:01.339Z,4.90
2018-10-07T21:45:07.679Z,5.67
2018-10-07T21:47:13.981Z,5.10
2018-10-07T21:49:20.168Z,5.23
2018-10-07T21:51:26.374Z,5.10
2018-10-07T21:53:32.666Z,4.93
2018-10-07T21:55:38.945Z,5.37
2018-10-07T21:57:45.153Z,3.97
2018-10-07T21:59:51.365Z,3.90
2018-10-07T22:01:57.782Z,3.97
2018-10-07T22:04:03.993Z,4.10
2018-10-07T22:06:11.000Z,4.27
2018-10-07T22:08:17.184Z,4.33
2018-10-07T22:10:23.360Z,4.30
2018-10-07T22:12:29.675Z,4.50
2018-10-07T22:14:35.851Z,4.90
2018-10-07T22:16:41.988Z,4.70
2018-10-07T22:18:48.187Z,4.47
2018-10-07T22:20:54.389Z,4.60
2018-10-07T22:23:00.623Z,4.30
2018-10-07T22:25:06.856Z,4.60
2018-10-07T22:27:12.971Z,4.33
2018-10-07T22:29:19.038Z,4.23
2018-10-07T22:31:25.201Z,4.23
2018-10-07T22:33:31.344Z,4.43
2018-10-07T22:35:38.488Z,5.00
2018-10-07T22:37:44.597Z,4.23
2018-10-07T22:39:50.716Z,5.40
2018-10-07T22:41:56.833Z,4.50
2018-10-07T22:44:03.023Z,4.70
2018-10-07T22:46:09.480Z,4.17
2018-10-07T22:48:15.605Z,3.83
2018-10-07T22:50:21.772Z,4.80
2018-10-07T22:52:27.909Z,4.63
2018-10-07T22:54:34.013Z,4.53
2018-10-07T22:56:40.702Z,4.57
2018-10-07T22:58:46.860Z,4.30
2018-10-07T23:00:52.941Z,4.23
2018-10-07T23:02:59.091Z,4.33
2018-10-07T23:05:06.210Z,4.20
2018-10-07T23:07:12.360Z,5.40
2018-10-07T23:09:18.521Z,5.30
2018-10-07T23:11:25.522Z,5.43
2018-10-07T23:13:31.756Z,4.10
2018-10-07T23:15:37.967Z,4.77
2018-10-07T23:17:44.089Z,5.33
2018-10-07T23:19:50.236Z,4.90
2018-10-07T23:21:56.333Z,4.50
2018-10-07T23:24:02.421Z,4.17
2018-10-07T23:26:08.520Z,4.77
2018-10-07T23:28:14.694Z,4.77
2018-10-07T23:30:20.936Z,4.03
2018-10-07T23:32:27.112Z,4.90
2018-10-07T23:34:33.237Z,5.63
2018-10-07T23:36:39.407Z,4.77
2018-10-07T23:38:45.541Z,4.40
2018-10-07T23:40:53.203Z,4.73
2018-10-07T23:42:59.325Z,4.97
2018-10-07T23:45:05.863Z,4.90
2018-10-07T23:47:12.014Z,4.33
2018-10-07T23:49:18.153Z,5.37
2018-10-07T23:51:24.210Z,4.67
2018-10-07T23:53:30.325Z,4.73
2018-10-07T23:55:36.484Z,4.90
2018-10-07T23:57:42.576Z,4.93
2018-10-07T23:59:48.833Z,6.07
